sensor_id;sensor_type;location;lat;lon;timestamp;temperature;humidity
51867;DHT22;52862;52.504;13.480;2022-11-20T00:00:48;0.90;99.90
51867;DHT22;52862;52.504;13.480;2022-11-20T00:03:14;1.00;99.90
51867;DHT22;52862;52.504;13.480;2022-11-20T00:05:41;1.20;99.90
51867;DHT22;52862;52.504;13.480;2022-11-20T00:08:07;0.90;99.90
51867;DHT22;52862;52.504;13.480;2022-11-20T00:10:36;1.50;99.90
51867;DHT22;52862;52.504;13.480;2022-11-20T00:13:04;0.90;99.90
51867;DHT22;52862;52.504;13.480;2022-11-20T00:15:30;0.90;99.90
51867;DHT22;52862;52.504;13.480;2022-11-20T00:17:57;0.80;99.90
51867;DHT22;52862;52.504;13.480;2022-11-20T00:20:24;2.10;99.90
51867;DHT22;52862;52.504;13.480;2022-11-20T00:22:51;1.70;99.90
51867;DHT22;52862;52.504;13.480;2022-11-20T00:25:17;1.10;99.90
51867;DHT22;52862;52.504;13.480;2022-11-20T00:27:44;0.40;99.90
51867;DHT22;52862;52.504;13.480;2022-11-20T00:30:12;0.80;99.90
51867;DHT22;52862;52.504;13.480;2022-11-20T00:32:41;0.90;99.90
51867;DHT22;52862;52.504;13.480;2022-11-20T00:35:07;1.10;99.90
51867;DHT22;52862;52.504;13.480;2022-11-20T00:37:34;0.80;99.90
51867;DHT22;52862;52.504;13.480;2022-11-20T00:40:01;1.00;99.90
51867;DHT22;52862;52.504;13.480;2022-11-20T00:42:28;0.80;99.90
51867;DHT22;52862;52.504;13.480;2022-11-20T00:44:55;0.80;99.90
51867;DHT22;52862;52.504;13.480;2022-11-20T00:47:22;1.60;99.90
51867;DHT22;52862;52.504;13.480;2022-11-20T00:49:49;1.20;99.90
51867;DHT22;52862;52.504;13.480;2022-11-20T00:52:16;0.90;99.90
51867;DHT22;52862;52.504;13.480;2022-11-20T00:54:54;0.70;99.90
51867;DHT22;52862;52.504;13.480;2022-11-20T00:57:23;0.70;99.90
51867;DHT22;52862;52.504;13.480;2022-11-20T00:59:50;0.80;99.90
51867;DHT22;52862;52.504;13.480;2022-11-20T01:02:19;0.80;99.90
51867;DHT22;52862;52.504;13.480;2022-11-20T01:04:47;0.80;99.90
51867;DHT22;52862;52.504;13.480;2022-11-20T01:07:14;1.30;99.90
51867;DHT22;52862;52.504;13.480;2022-11-20T01:09:41;2.30;99.90
51867;DHT22;52862;52.504;13.480;2022-11-20T01:12:08;1.00;99.90
51867;DHT22;52862;52.504;13.480;2022-11-20T01:14:37;0.80;99.90
51867;DHT22;52862;52.504;13.480;2022-11-20T01:17:04;1.60;99.90
51867;DHT22;52862;52.504;13.480;2022-11-20T01:19:31;0.70;99.90
51867;DHT22;52862;52.504;13.480;2022-11-20T01:21:58;1.10;99.90
51867;DHT22;52862;52.504;13.480;2022-11-20T01:24:25;1.30;99.90
51867;DHT22;52862;52.504;13.480;2022-11-20T01:26:52;0.70;99.90
51867;DHT22;52862;52.504;13.480;2022-11-20T01:29:20;0.80;99.90
51867;DHT22;52862;52.504;13.480;2022-11-20T01:31:48;0.70;99.90
51867;DHT22;52862;52.504;13.480;2022-11-20T01:34:16;0.80;99.90
51867;DHT22;52862;52.504;13.480;2022-11-20T01:36:44;1.00;99.90
51867;DHT22;52862;52.504;13.480;2022-11-20T01:39:14;0.70;99.90
51867;DHT22;52862;52.504;13.480;2022-11-20T01:41:42;0.80;99.90
51867;DHT22;52862;52.504;13.480;2022-11-20T01:47:31;0.90;99.90
51867;DHT22;52862;52.504;13.480;2022-11-20T01:50:03;1.60;99.90
51867;DHT22;52862;52.504;13.480;2022-11-20T01:52:34;0.70;99.90
51867;DHT22;52862;52.504;13.480;2022-11-20T01:55:07;1.10;99.90
51867;DHT22;52862;52.504;13.480;2022-11-20T01:57:35;1.00;99.90
51867;DHT22;52862;52.504;13.480;2022-11-20T02:00:06;0.90;99.90
51867;DHT22;52862;52.504;13.480;2022-11-20T02:02:34;0.60;99.90
51867;DHT22;52862;52.504;13.480;2022-11-20T02:05:08;0.70;99.90
51867;DHT22;52862;52.504;13.480;2022-11-20T02:07:38;0.80;99.90
51867;DHT22;52862;52.504;13.480;2022-11-20T02:10:06;1.70;99.90
51867;DHT22;52862;52.504;13.480;2022-11-20T02:12:33;0.80;99.90
51867;DHT22;52862;52.504;13.480;2022-11-20T02:15:26;1.10;99.90
51867;DHT22;52862;52.504;13.480;2022-11-20T02:17:56;0.70;99.90
51867;DHT22;52862;52.504;13.480;2022-11-20T02:20:23;0.70;99.90
51867;DHT22;52862;52.504;13.480;2022-11-20T02:22:54;0.80;99.90
51867;DHT22;52862;52.504;13.480;2022-11-20T02:25:24;0.90;99.90
51867;DHT22;52862;52.504;13.480;2022-11-20T02:27:51;0.70;99.90
51867;DHT22;52862;52.504;13.480;2022-11-20T02:30:18;0.70;99.90
51867;DHT22;52862;52.504;13.480;2022-11-20T02:32:44;0.70;99.90
51867;DHT22;52862;52.504;13.480;2022-11-20T02:35:39;0.90;99.90
51867;DHT22;52862;52.504;13.480;2022-11-20T02:38:06;0.70;99.90
51867;DHT22;52862;52.504;13.480;2022-11-20T02:40:34;0.60;99.90
51867;DHT22;52862;52.504;13.480;2022-11-20T02:43:00;0.60;99.90
51867;DHT22;52862;52.504;13.480;2022-11-20T02:45:27;2.10;99.90
51867;DHT22;52862;52.504;13.480;2022-11-20T02:47:54;0.80;99.90
51867;DHT22;52862;52.504;13.480;2022-11-20T02:50:20;0.00;99.90
51867;DHT22;52862;52.504;13.480;2022-11-20T02:52:47;1.10;99.90
51867;DHT22;52862;52.504;13.480;2022-11-20T02:55:14;0.60;99.90
51867;DHT22;52862;52.504;13.480;2022-11-20T02:57:41;1.10;99.90
51867;DHT22;52862;52.504;13.480;2022-11-20T03:00:09;0.70;99.90
51867;DHT22;52862;52.504;13.480;2022-11-20T03:02:36;0.80;99.90
51867;DHT22;52862;52.504;13.480;2022-11-20T03:05:03;2.30;99.90
51867;DHT22;52862;52.504;13.480;2022-11-20T03:07:30;0.70;99.90
51867;DHT22;52862;52.504;13.480;2022-11-20T03:09:56;0.80;99.90
51867;DHT22;52862;52.504;13.480;2022-11-20T03:12:23;0.70;99.90
51867;DHT22;52862;52.504;13.480;2022-11-20T03:14:50;1.30;99.90
51867;DHT22;52862;52.504;13.480;2022-11-20T03:17:20;0.50;99.90
51867;DHT22;52862;52.504;13.480;2022-11-20T03:19:46;0.60;99.90
51867;DHT22;52862;52.504;13.480;2022-11-20T03:22:13;0.20;99.90
51867;DHT22;52862;52.504;13.480;2022-11-20T03:24:40;0.70;99.90
51867;DHT22;52862;52.504;13.480;2022-11-20T03:27:06;0.60;99.90
51867;DHT22;52862;52.504;13.480;2022-11-20T03:29:34;0.50;99.90
51867;DHT22;52862;52.504;13.480;2022-11-20T03:32:02;0.20;99.90
51867;DHT22;52862;52.504;13.480;2022-11-20T03:34:28;0.50;99.90
51867;DHT22;52862;52.504;13.480;2022-11-20T03:36:55;2.20;99.90
51867;DHT22;52862;52.504;13.480;2022-11-20T03:39:22;0.90;99.90
51867;DHT22;52862;52.504;13.480;2022-11-20T03:41:49;1.00;99.90
51867;DHT22;52862;52.504;13.480;2022-11-20T03:44:15;0.50;99.90
51867;DHT22;52862;52.504;13.480;2022-11-20T03:46:42;2.50;99.90
51867;DHT22;52862;52.504;13.480;2022-11-20T03:49:09;0.40;99.90
51867;DHT22;52862;52.504;13.480;2022-11-20T03:51:36;0.50;99.90
51867;DHT22;52862;52.504;13.480;2022-11-20T03:54:06;0.30;99.90
51867;DHT22;52862;52.504;13.480;2022-11-20T03:56:35;0.50;99.90
51867;DHT22;52862;52.504;13.480;2022-11-20T03:59:02;0.60;99.90
51867;DHT22;52862;52.504;13.480;2022-11-20T04:01:31;1.70;99.90
51867;DHT22;52862;52.504;13.480;2022-11-20T04:03:59;0.70;99.90
51867;DHT22;52862;52.504;13.480;2022-11-20T04:06:28;0.50;99.90
51867;DHT22;52862;52.504;13.480;2022-11-20T04:08:56;1.00;99.90
51867;DHT22;52862;52.504;13.480;2022-11-20T04:11:24;0.80;99.90
51867;DHT22;52862;52.504;13.480;2022-11-20T04:13:53;0.80;99.90
51867;DHT22;52862;52.504;13.480;2022-11-20T04:16:21;0.60;99.90
51867;DHT22;52862;52.504;13.480;2022-11-20T04:18:51;0.50;99.90
51867;DHT22;52862;52.504;13.480;2022-11-20T04:21:18;0.90;99.90
51867;DHT22;52862;52.504;13.480;2022-11-20T04:23:46;0.50;99.90
51867;DHT22;52862;52.504;13.480;2022-11-20T04:26:13;0.60;99.90
51867;DHT22;52862;52.504;13.480;2022-11-20T04:28:40;0.50;99.90
51867;DHT22;52862;52.504;13.480;2022-11-20T04:31:09;0.90;99.90
51867;DHT22;52862;52.504;13.480;2022-11-20T04:33:36;1.10;99.90
51867;DHT22;52862;52.504;13.480;2022-11-20T04:36:07;0.50;99.90
51867;DHT22;52862;52.504;13.480;2022-11-20T04:38:34;0.60;99.90
51867;DHT22;52862;52.504;13.480;2022-11-20T04:41:02;0.40;99.90
51867;DHT22;52862;52.504;13.480;2022-11-20T04:43:30;0.40;99.90
51867;DHT22;52862;52.504;13.480;2022-11-20T04:45:58;0.00;99.90
51867;DHT22;52862;52.504;13.480;2022-11-20T04:48:26;0.40;99.90
51867;DHT22;52862;52.504;13.480;2022-11-20T04:50:53;1.40;99.90
51867;DHT22;52862;52.504;13.480;2022-11-20T04:53:20;0.60;99.90
51867;DHT22;52862;52.504;13.480;2022-11-20T04:55:47;1.00;99.90
51867;DHT22;52862;52.504;13.480;2022-11-20T04:58:15;0.80;99.90
51867;DHT22;52862;52.504;13.480;2022-11-20T05:00:41;0.20;99.90
51867;DHT22;52862;52.504;13.480;2022-11-20T05:05:35;0.20;99.90
51867;DHT22;52862;52.504;13.480;2022-11-20T05:08:02;0.40;99.90
51867;DHT22;52862;52.504;13.480;2022-11-20T05:10:29;0.30;99.90
51867;DHT22;52862;52.504;13.480;2022-11-20T05:12:57;0.70;99.90
51867;DHT22;52862;52.504;13.480;2022-11-20T05:15:24;0.50;99.90
51867;DHT22;52862;52.504;13.480;2022-11-20T05:17:52;0.40;99.90
51867;DHT22;52862;52.504;13.480;2022-11-20T05:20:19;1.20;99.90
51867;DHT22;52862;52.504;13.480;2022-11-20T05:22:46;0.40;99.90
51867;DHT22;52862;52.504;13.480;2022-11-20T05:25:13;0.20;99.90
51867;DHT22;52862;52.504;13.480;2022-11-20T05:27:40;0.40;99.90
51867;DHT22;52862;52.504;13.480;2022-11-20T05:30:08;0.90;99.90
51867;DHT22;52862;52.504;13.480;2022-11-20T05:32:35;0.80;99.90
51867;DHT22;52862;52.504;13.480;2022-11-20T05:35:03;0.40;99.90
51867;DHT22;52862;52.504;13.480;2022-11-20T05:37:30;0.40;99.90
51867;DHT22;52862;52.504;13.480;2022-11-20T05:39:57;0.60;99.90
51867;DHT22;52862;52.504;13.480;2022-11-20T05:42:23;0.40;99.90
51867;DHT22;52862;52.504;13.480;2022-11-20T05:44:59;0.60;99.90
51867;DHT22;52862;52.504;13.480;2022-11-20T05:47:27;0.60;99.90
51867;DHT22;52862;52.504;13.480;2022-11-20T05:49:55;0.70;99.90
51867;DHT22;52862;52.504;13.480;2022-11-20T05:52:21;0.50;99.90
51867;DHT22;52862;52.504;13.480;2022-11-20T05:54:48;0.40;99.90
51867;DHT22;52862;52.504;13.480;2022-11-20T05:57:15;0.50;99.90
51867;DHT22;52862;52.504;13.480;2022-11-20T05:59:43;0.40;99.90
51867;DHT22;52862;52.504;13.480;2022-11-20T06:02:09;0.40;99.90
51867;DHT22;52862;52.504;13.480;2022-11-20T06:04:36;1.20;99.90
51867;DHT22;52862;52.504;13.480;2022-11-20T06:07:04;1.00;99.90
51867;DHT22;52862;52.504;13.480;2022-11-20T06:09:32;3.30;99.90
51867;DHT22;52862;52.504;13.480;2022-11-20T06:11:58;0.50;99.90
51867;DHT22;52862;52.504;13.480;2022-11-20T06:14:25;0.70;99.90
51867;DHT22;52862;52.504;13.480;2022-11-20T06:16:51;0.70;99.90
51867;DHT22;52862;52.504;13.480;2022-11-20T06:19:18;0.70;99.90
51867;DHT22;52862;52.504;13.480;2022-11-20T06:21:47;0.30;99.90
51867;DHT22;52862;52.504;13.480;2022-11-20T06:24:15;1.50;99.90
51867;DHT22;52862;52.504;13.480;2022-11-20T06:26:41;0.60;99.90
51867;DHT22;52862;52.504;13.480;2022-11-20T06:29:08;1.20;99.90
51867;DHT22;52862;52.504;13.480;2022-11-20T06:31:35;1.30;99.90
51867;DHT22;52862;52.504;13.480;2022-11-20T06:34:04;0.60;99.90
51867;DHT22;52862;52.504;13.480;2022-11-20T06:36:30;0.70;99.90
51867;DHT22;52862;52.504;13.480;2022-11-20T06:38:57;0.70;99.90
51867;DHT22;52862;52.504;13.480;2022-11-20T06:41:25;0.50;99.90
51867;DHT22;52862;52.504;13.480;2022-11-20T06:43:51;0.60;99.90
51867;DHT22;52862;52.504;13.480;2022-11-20T06:46:19;0.50;99.90
51867;DHT22;52862;52.504;13.480;2022-11-20T06:48:47;2.40;99.90
51867;DHT22;52862;52.504;13.480;2022-11-20T06:51:14;0.50;99.90
51867;DHT22;52862;52.504;13.480;2022-11-20T06:53:41;0.50;99.90
51867;DHT22;52862;52.504;13.480;2022-11-20T06:56:08;0.60;99.90
51867;DHT22;52862;52.504;13.480;2022-11-20T06:58:36;1.30;99.90
51867;DHT22;52862;52.504;13.480;2022-11-20T07:01:04;0.60;99.90
51867;DHT22;52862;52.504;13.480;2022-11-20T07:03:31;0.80;99.90
51867;DHT22;52862;52.504;13.480;2022-11-20T07:05:58;1.40;99.90
51867;DHT22;52862;52.504;13.480;2022-11-20T07:08:26;0.10;99.90
51867;DHT22;52862;52.504;13.480;2022-11-20T07:10:57;0.80;99.90
51867;DHT22;52862;52.504;13.480;2022-11-20T07:13:24;0.50;99.90
51867;DHT22;52862;52.504;13.480;2022-11-20T07:15:51;0.90;99.90
51867;DHT22;52862;52.504;13.480;2022-11-20T07:18:17;0.70;99.90
51867;DHT22;52862;52.504;13.480;2022-11-20T07:20:44;0.90;99.90
51867;DHT22;52862;52.504;13.480;2022-11-20T07:23:11;0.80;99.90
51867;DHT22;52862;52.504;13.480;2022-11-20T07:25:38;1.20;99.90
51867;DHT22;52862;52.504;13.480;2022-11-20T07:28:04;0.80;99.90
51867;DHT22;52862;52.504;13.480;2022-11-20T07:30:33;1.00;99.90
51867;DHT22;52862;52.504;13.480;2022-11-20T07:33:00;0.40;99.90
51867;DHT22;52862;52.504;13.480;2022-11-20T07:35:27;0.60;99.90
51867;DHT22;52862;52.504;13.480;2022-11-20T07:37:53;1.10;99.90
51867;DHT22;52862;52.504;13.480;2022-11-20T07:40:20;0.60;99.90
51867;DHT22;52862;52.504;13.480;2022-11-20T07:42:47;0.60;99.90
51867;DHT22;52862;52.504;13.480;2022-11-20T07:45:15;0.90;99.90
51867;DHT22;52862;52.504;13.480;2022-11-20T07:47:43;0.70;99.90
51867;DHT22;52862;52.504;13.480;2022-11-20T07:50:11;1.00;99.90
51867;DHT22;52862;52.504;13.480;2022-11-20T07:52:39;1.40;99.90
51867;DHT22;52862;52.504;13.480;2022-11-20T07:55:07;0.60;99.90
51867;DHT22;52862;52.504;13.480;2022-11-20T07:57:37;0.80;99.90
51867;DHT22;52862;52.504;13.480;2022-11-20T08:00:06;1.00;99.90
51867;DHT22;52862;52.504;13.480;2022-11-20T08:02:37;0.70;99.90
51867;DHT22;52862;52.504;13.480;2022-11-20T08:05:08;0.50;99.90
51867;DHT22;52862;52.504;13.480;2022-11-20T08:07:40;0.40;99.90
51867;DHT22;52862;52.504;13.480;2022-11-20T08:10:11;0.60;99.90
51867;DHT22;52862;52.504;13.480;2022-11-20T08:12:44;0.60;99.90
51867;DHT22;52862;52.504;13.480;2022-11-20T08:18:01;0.60;99.90
51867;DHT22;52862;52.504;13.480;2022-11-20T08:20:50;0.80;99.90
51867;DHT22;52862;52.504;13.480;2022-11-20T08:23:20;1.00;99.90
51867;DHT22;52862;52.504;13.480;2022-11-20T08:25:49;0.70;99.90
51867;DHT22;52862;52.504;13.480;2022-11-20T08:28:17;0.80;99.90
51867;DHT22;52862;52.504;13.480;2022-11-20T08:30:48;0.40;99.90
51867;DHT22;52862;52.504;13.480;2022-11-20T08:33:17;1.60;99.90
51867;DHT22;52862;52.504;13.480;2022-11-20T08:35:44;1.00;99.90
51867;DHT22;52862;52.504;13.480;2022-11-20T08:38:11;0.90;99.90
51867;DHT22;52862;52.504;13.480;2022-11-20T08:40:38;0.50;99.90
51867;DHT22;52862;52.504;13.480;2022-11-20T08:45:32;0.80;99.90
51867;DHT22;52862;52.504;13.480;2022-11-20T08:48:01;0.90;99.90
51867;DHT22;52862;52.504;13.480;2022-11-20T08:50:28;1.10;99.90
51867;DHT22;52862;52.504;13.480;2022-11-20T08:53:02;0.80;99.90
51867;DHT22;52862;52.504;13.480;2022-11-20T08:55:29;0.80;99.90
51867;DHT22;52862;52.504;13.480;2022-11-20T08:57:56;0.80;99.90
51867;DHT22;52862;52.504;13.480;2022-11-20T09:00:23;0.90;99.90
51867;DHT22;52862;52.504;13.480;2022-11-20T09:02:50;1.00;99.90
51867;DHT22;52862;52.504;13.480;2022-11-20T09:05:17;1.10;99.90
51867;DHT22;52862;52.504;13.480;2022-11-20T09:07:44;1.20;99.90
51867;DHT22;52862;52.504;13.480;2022-11-20T09:10:11;0.70;99.90
51867;DHT22;52862;52.504;13.480;2022-11-20T09:12:53;0.90;99.90
51867;DHT22;52862;52.504;13.480;2022-11-20T09:15:22;1.10;99.90
51867;DHT22;52862;52.504;13.480;2022-11-20T09:17:52;1.30;99.90
51867;DHT22;52862;52.504;13.480;2022-11-20T09:20:19;1.40;99.90
51867;DHT22;52862;52.504;13.480;2022-11-20T09:22:46;1.00;99.90
51867;DHT22;52862;52.504;13.480;2022-11-20T09:25:12;0.30;99.90
51867;DHT22;52862;52.504;13.480;2022-11-20T09:27:39;1.40;99.90
51867;DHT22;52862;52.504;13.480;2022-11-20T09:30:09;1.70;99.90
51867;DHT22;52862;52.504;13.480;2022-11-20T09:32:38;1.20;99.90
51867;DHT22;52862;52.504;13.480;2022-11-20T09:35:06;1.10;99.90
51867;DHT22;52862;52.504;13.480;2022-11-20T09:37:32;1.10;99.90
51867;DHT22;52862;52.504;13.480;2022-11-20T09:39:59;1.30;99.90
51867;DHT22;52862;52.504;13.480;2022-11-20T09:42:34;1.30;99.90
51867;DHT22;52862;52.504;13.480;2022-11-20T09:45:19;1.70;99.90
51867;DHT22;52862;52.504;13.480;2022-11-20T09:48:00;1.10;99.90
51867;DHT22;52862;52.504;13.480;2022-11-20T09:50:32;1.40;99.90
51867;DHT22;52862;52.504;13.480;2022-11-20T09:53:12;2.60;99.90
51867;DHT22;52862;52.504;13.480;2022-11-20T09:55:40;1.40;99.90
51867;DHT22;52862;52.504;13.480;2022-11-20T09:58:11;1.20;99.90
51867;DHT22;52862;52.504;13.480;2022-11-20T10:00:40;1.30;99.90
51867;DHT22;52862;52.504;13.480;2022-11-20T10:03:13;1.20;99.90
51867;DHT22;52862;52.504;13.480;2022-11-20T10:05:44;2.10;99.90
51867;DHT22;52862;52.504;13.480;2022-11-20T10:08:16;1.30;99.90
51867;DHT22;52862;52.504;13.480;2022-11-20T10:10:47;1.30;99.90
51867;DHT22;52862;52.504;13.480;2022-11-20T10:13:30;1.30;99.90
51867;DHT22;52862;52.504;13.480;2022-11-20T10:16:13;1.30;99.90
51867;DHT22;52862;52.504;13.480;2022-11-20T10:18:53;1.40;99.90
51867;DHT22;52862;52.504;13.480;2022-11-20T10:21:28;1.30;99.90
51867;DHT22;52862;52.504;13.480;2022-11-20T10:24:17;1.30;99.90
51867;DHT22;52862;52.504;13.480;2022-11-20T10:26:56;1.40;99.90
51867;DHT22;52862;52.504;13.480;2022-11-20T10:29:32;1.30;99.90
51867;DHT22;52862;52.504;13.480;2022-11-20T10:32:02;1.30;99.90
51867;DHT22;52862;52.504;13.480;2022-11-20T10:34:35;1.70;99.90
51867;DHT22;52862;52.504;13.480;2022-11-20T10:37:11;1.70;99.90
51867;DHT22;52862;52.504;13.480;2022-11-20T10:39:42;1.20;99.90
51867;DHT22;52862;52.504;13.480;2022-11-20T10:42:17;1.20;99.90
51867;DHT22;52862;52.504;13.480;2022-11-20T10:44:51;1.10;99.90
51867;DHT22;52862;52.504;13.480;2022-11-20T10:47:31;1.80;99.90
51867;DHT22;52862;52.504;13.480;2022-11-20T10:50:05;1.20;99.90
51867;DHT22;52862;52.504;13.480;2022-11-20T10:52:42;1.40;99.90
51867;DHT22;52862;52.504;13.480;2022-11-20T10:55:24;1.40;99.90
51867;DHT22;52862;52.504;13.480;2022-11-20T10:57:54;1.20;99.90
51867;DHT22;52862;52.504;13.480;2022-11-20T11:00:22;1.20;99.90
51867;DHT22;52862;52.504;13.480;2022-11-20T11:02:50;1.20;99.90
51867;DHT22;52862;52.504;13.480;2022-11-20T11:05:29;2.00;99.90
51867;DHT22;52862;52.504;13.480;2022-11-20T11:07:58;2.30;99.90
51867;DHT22;52862;52.504;13.480;2022-11-20T11:10:32;1.60;99.90
51867;DHT22;52862;52.504;13.480;2022-11-20T11:13:01;1.60;99.90
51867;DHT22;52862;52.504;13.480;2022-11-20T11:15:29;2.20;99.90
51867;DHT22;52862;52.504;13.480;2022-11-20T11:17:57;1.90;99.90
51867;DHT22;52862;52.504;13.480;2022-11-20T11:20:25;2.40;99.90
51867;DHT22;52862;52.504;13.480;2022-11-20T11:22:53;1.70;99.90
51867;DHT22;52862;52.504;13.480;2022-11-20T11:25:24;2.10;99.90
51867;DHT22;52862;52.504;13.480;2022-11-20T11:27:52;2.50;99.90
51867;DHT22;52862;52.504;13.480;2022-11-20T11:30:20;2.40;99.90
51867;DHT22;52862;52.504;13.480;2022-11-20T11:32:47;2.30;99.90
51867;DHT22;52862;52.504;13.480;2022-11-20T11:35:26;2.30;99.90
51867;DHT22;52862;52.504;13.480;2022-11-20T11:38:03;1.70;99.90
51867;DHT22;52862;52.504;13.480;2022-11-20T11:40:31;2.20;99.90
51867;DHT22;52862;52.504;13.480;2022-11-20T11:43:01;2.20;99.90
51867;DHT22;52862;52.504;13.480;2022-11-20T11:45:29;1.60;99.90
51867;DHT22;52862;52.504;13.480;2022-11-20T11:47:57;1.90;99.90
51867;DHT22;52862;52.504;13.480;2022-11-20T11:50:26;2.20;99.90
51867;DHT22;52862;52.504;13.480;2022-11-20T11:53:12;1.70;99.90
51867;DHT22;52862;52.504;13.480;2022-11-20T11:55:43;1.90;99.90
51867;DHT22;52862;52.504;13.480;2022-11-20T11:58:16;1.60;99.90
51867;DHT22;52862;52.504;13.480;2022-11-20T12:00:52;1.60;99.90
51867;DHT22;52862;52.504;13.480;2022-11-20T12:03:25;1.90;99.90
51867;DHT22;52862;52.504;13.480;2022-11-20T12:05:58;2.10;99.90
51867;DHT22;52862;52.504;13.480;2022-11-20T12:08:29;1.70;99.90
51867;DHT22;52862;52.504;13.480;2022-11-20T12:11:03;1.60;99.90
51867;DHT22;52862;52.504;13.480;2022-11-20T12:13:38;1.10;99.90
51867;DHT22;52862;52.504;13.480;2022-11-20T12:16:10;1.70;99.90
51867;DHT22;52862;52.504;13.480;2022-11-20T12:18:38;1.50;99.90
51867;DHT22;52862;52.504;13.480;2022-11-20T12:21:18;2.00;99.90
51867;DHT22;52862;52.504;13.480;2022-11-20T12:23:55;1.50;99.90
51867;DHT22;52862;52.504;13.480;2022-11-20T12:26:33;1.60;99.90
51867;DHT22;52862;52.504;13.480;2022-11-20T12:29:08;1.60;99.90
51867;DHT22;52862;52.504;13.480;2022-11-20T12:31:56;1.60;99.90
51867;DHT22;52862;52.504;13.480;2022-11-20T12:34:41;1.60;99.90
51867;DHT22;52862;52.504;13.480;2022-11-20T12:37:19;2.00;99.90
51867;DHT22;52862;52.504;13.480;2022-11-20T12:39:50;1.70;99.90
51867;DHT22;52862;52.504;13.480;2022-11-20T12:42:39;1.50;99.90
51867;DHT22;52862;52.504;13.480;2022-11-20T12:45:46;2.10;99.90
51867;DHT22;52862;52.504;13.480;2022-11-20T12:48:42;2.30;99.90
51867;DHT22;52862;52.504;13.480;2022-11-20T12:51:33;2.10;99.90
51867;DHT22;52862;52.504;13.480;2022-11-20T12:54:36;2.00;99.90
51867;DHT22;52862;52.504;13.480;2022-11-20T12:57:10;2.10;99.90
51867;DHT22;52862;52.504;13.480;2022-11-20T12:59:59;2.50;99.90
51867;DHT22;52862;52.504;13.480;2022-11-20T13:02:35;2.20;99.90
51867;DHT22;52862;52.504;13.480;2022-11-20T13:05:16;2.50;99.90
51867;DHT22;52862;52.504;13.480;2022-11-20T13:07:45;2.80;99.90
51867;DHT22;52862;52.504;13.480;2022-11-20T13:10:18;2.20;99.90
51867;DHT22;52862;52.504;13.480;2022-11-20T13:12:51;2.20;99.90
51867;DHT22;52862;52.504;13.480;2022-11-20T13:15:31;2.20;99.90
51867;DHT22;52862;52.504;13.480;2022-11-20T13:18:01;2.00;99.90
51867;DHT22;52862;52.504;13.480;2022-11-20T13:20:29;2.20;99.90
51867;DHT22;52862;52.504;13.480;2022-11-20T13:22:57;2.70;99.90
51867;DHT22;52862;52.504;13.480;2022-11-20T13:25:26;2.70;99.90
51867;DHT22;52862;52.504;13.480;2022-11-20T13:27:54;2.90;99.90
51867;DHT22;52862;52.504;13.480;2022-11-20T13:30:22;2.80;99.90
51867;DHT22;52862;52.504;13.480;2022-11-20T13:32:52;3.40;99.90
51867;DHT22;52862;52.504;13.480;2022-11-20T13:35:28;3.50;99.90
51867;DHT22;52862;52.504;13.480;2022-11-20T13:38:04;3.10;99.90
51867;DHT22;52862;52.504;13.480;2022-11-20T13:40:32;2.80;99.90
51867;DHT22;52862;52.504;13.480;2022-11-20T13:43:07;2.90;99.90
51867;DHT22;52862;52.504;13.480;2022-11-20T13:45:37;2.30;99.90
51867;DHT22;52862;52.504;13.480;2022-11-20T13:48:15;2.10;99.90
51867;DHT22;52862;52.504;13.480;2022-11-20T13:50:54;2.30;99.90
51867;DHT22;52862;52.504;13.480;2022-11-20T13:56:18;2.40;99.90
51867;DHT22;52862;52.504;13.480;2022-11-20T13:58:55;2.60;99.90
51867;DHT22;52862;52.504;13.480;2022-11-20T14:01:31;2.30;99.90
51867;DHT22;52862;52.504;13.480;2022-11-20T14:03:58;2.20;99.90
51867;DHT22;52862;52.504;13.480;2022-11-20T14:06:38;1.90;99.90
51867;DHT22;52862;52.504;13.480;2022-11-20T14:09:10;1.90;99.90
51867;DHT22;52862;52.504;13.480;2022-11-20T14:11:46;1.90;99.90
51867;DHT22;52862;52.504;13.480;2022-11-20T14:14:15;1.70;99.90
51867;DHT22;52862;52.504;13.480;2022-11-20T14:16:42;2.00;99.90
51867;DHT22;52862;52.504;13.480;2022-11-20T14:19:24;1.70;99.90
51867;DHT22;52862;52.504;13.480;2022-11-20T14:21:53;1.80;99.90
51867;DHT22;52862;52.504;13.480;2022-11-20T14:24:21;1.30;99.90
51867;DHT22;52862;52.504;13.480;2022-11-20T14:26:50;1.80;99.90
51867;DHT22;52862;52.504;13.480;2022-11-20T14:29:19;1.80;99.90
51867;DHT22;52862;52.504;13.480;2022-11-20T14:31:51;1.90;99.90
51867;DHT22;52862;52.504;13.480;2022-11-20T14:34:22;1.70;99.90
51867;DHT22;52862;52.504;13.480;2022-11-20T14:36:53;2.30;99.90
51867;DHT22;52862;52.504;13.480;2022-11-20T14:39:25;2.10;99.90
51867;DHT22;52862;52.504;13.480;2022-11-20T14:41:53;2.00;99.90
51867;DHT22;52862;52.504;13.480;2022-11-20T14:44:23;1.80;99.90
51867;DHT22;52862;52.504;13.480;2022-11-20T14:46:51;2.10;99.90
51867;DHT22;52862;52.504;13.480;2022-11-20T14:49:19;2.60;99.90
51867;DHT22;52862;52.504;13.480;2022-11-20T14:51:46;2.30;99.90
51867;DHT22;52862;52.504;13.480;2022-11-20T14:54:15;1.90;99.90
51867;DHT22;52862;52.504;13.480;2022-11-20T14:56:54;1.50;99.90
51867;DHT22;52862;52.504;13.480;2022-11-20T14:59:23;1.70;99.90
51867;DHT22;52862;52.504;13.480;2022-11-20T15:01:55;2.20;99.90
51867;DHT22;52862;52.504;13.480;2022-11-20T15:04:23;1.80;99.90
51867;DHT22;52862;52.504;13.480;2022-11-20T15:06:51;1.60;99.90
51867;DHT22;52862;52.504;13.480;2022-11-20T15:09:18;1.70;99.90
51867;DHT22;52862;52.504;13.480;2022-11-20T15:11:54;2.40;99.90
51867;DHT22;52862;52.504;13.480;2022-11-20T15:14:22;1.60;99.90
51867;DHT22;52862;52.504;13.480;2022-11-20T15:16:50;1.60;99.90
51867;DHT22;52862;52.504;13.480;2022-11-20T15:19:19;2.10;99.90
51867;DHT22;52862;52.504;13.480;2022-11-20T15:21:49;1.60;99.90
51867;DHT22;52862;52.504;13.480;2022-11-20T15:24:16;1.60;99.90
51867;DHT22;52862;52.504;13.480;2022-11-20T15:26:44;1.60;99.90
51867;DHT22;52862;52.504;13.480;2022-11-20T15:29:11;1.70;99.90
51867;DHT22;52862;52.504;13.480;2022-11-20T15:31:39;1.90;99.90
51867;DHT22;52862;52.504;13.480;2022-11-20T15:34:10;2.20;99.90
51867;DHT22;52862;52.504;13.480;2022-11-20T15:36:38;1.60;99.90
51867;DHT22;52862;52.504;13.480;2022-11-20T15:39:04;1.80;99.90
51867;DHT22;52862;52.504;13.480;2022-11-20T15:41:33;1.60;99.90
51867;DHT22;52862;52.504;13.480;2022-11-20T15:43:59;1.60;99.90
51867;DHT22;52862;52.504;13.480;2022-11-20T15:46:28;1.70;99.90
51867;DHT22;52862;52.504;13.480;2022-11-20T15:48:57;1.70;99.90
51867;DHT22;52862;52.504;13.480;2022-11-20T15:51:27;1.60;99.90
51867;DHT22;52862;52.504;13.480;2022-11-20T15:53:56;1.60;99.90
51867;DHT22;52862;52.504;13.480;2022-11-20T15:56:23;1.90;99.90
51867;DHT22;52862;52.504;13.480;2022-11-20T15:58:49;1.60;99.90
51867;DHT22;52862;52.504;13.480;2022-11-20T16:01:18;1.80;99.90